Adamsville, Utah
Current Conditions -  °F | °C
As of 8:52 PM on Saturday 22 Nov 2014 (Local Time) from KMLF Reporting Station
Light Rain Light Rain  
Wind Chill: -2°   Ceiling: 5500
Heat Index:   Visibility: 10mi
Dew Point:   Wind: 26mph
Humidity: 83%   Direction: 360°N
Pressure: 29.92"   Gusts: 35mph
Location:  38.2672°N, 112.728°W
Report Text: KMLF 230352Z AUTO 36023G30KT 10SM -RA SCT035 BKN055 04/02 A2992 RMK AO2 PK WND 36030/0348 RAB49 PRESRR SLP119 P0000 T00440017 TSNO
Loading
Personal Weather Stations






























Interactive Weather Map New forecast layout! Learn more

10-Day Weather Forecast

Advertisements
Track Severe Weather on mobile